Time;durP1;ratioP1;P1;durP2;ratioP2;P2;SDS_P1;SDS_P2;PMS_P1;PMS_P2;Temp;Humidity;BMP_temperature;BMP_pressure;BME280_temperature;BME280_humidity;BME280_pressure;Samples;Min_cycle;Max_cycle;Signal;HPM_P1;HPM_P2
2023/09/18 00:02:15;;;;;;;7.47;6.60;;;19.80;99.90;;;;;;5001272;28;20226;-69
2023/09/18 00:05:05;;;;;;;7.10;6.38;;;19.70;99.90;;;;;;5010282;27;20218;-70
2023/09/18 00:07:53;;;;;;;8.77;6.90;;;19.70;99.90;;;;;;5070798;27;20227;-70
2023/09/18 00:10:48;;;;;;;7.15;6.45;;;19.70;99.90;;;;;;4996407;28;20209;-69
2023/09/18 00:13:40;;;;;;;8.63;6.90;;;19.70;99.90;;;;;;5026525;27;20979;-69
2023/09/18 00:16:29;;;;;;;8.30;7.22;;;19.60;99.90;;;;;;5004153;28;20237;-69
2023/09/18 00:19:26;;;;;;;8.43;7.35;;;19.50;99.90;;;;;;5014049;27;20237;-71
2023/09/18 00:22:14;;;;;;;8.43;7.03;;;19.60;99.90;;;;;;5011316;28;20596;-69
2023/09/18 00:25:03;;;;;;;8.50;7.40;;;19.50;99.90;;;;;;5010112;28;20221;-69
2023/09/18 00:27:53;;;;;;;9.13;7.60;;;19.50;99.90;;;;;;5070194;27;20230;-69
2023/09/18 00:30:47;;;;;;;7.93;7.13;;;19.40;99.90;;;;;;5024213;27;20298;-68
2023/09/18 00:33:38;;;;;;;8.52;7.70;;;19.40;99.90;;;;;;5008095;28;20230;-69
2023/09/18 00:36:27;;;;;;;8.68;7.80;;;19.40;99.90;;;;;;5010769;27;20737;-68
2023/09/18 00:39:16;;;;;;;8.70;7.75;;;19.40;99.90;;;;;;5004155;27;20231;-71
2023/09/18 00:42:05;;;;;;;9.00;8.00;;;19.40;99.90;;;;;;5004175;28;20249;-69
2023/09/18 00:44:56;;;;;;;9.07;7.90;;;19.30;99.90;;;;;;5006254;28;20257;-71
2023/09/18 00:47:46;;;;;;;9.13;8.23;;;19.30;99.90;;;;;;4986593;28;20270;-71
2023/09/18 00:50:35;;;;;;;8.85;7.95;;;19.30;99.90;;;;;;5013444;28;20317;-70
2023/09/18 00:53:28;;;;;;;9.40;8.30;;;19.20;99.90;;;;;;5025015;27;20787;-69
2023/09/18 00:56:18;;;;;;;9.45;8.50;;;19.20;99.90;;;;;;5014862;28;20747;-70
2023/09/18 00:59:10;;;;;;;10.40;8.05;;;19.20;99.90;;;;;;5020860;27;20778;-70
2023/09/18 01:02:01;;;;;;;9.15;8.20;;;19.20;99.90;;;;;;5026642;28;20229;-72
2023/09/18 01:04:50;;;;;;;9.52;8.63;;;19.10;99.90;;;;;;5017916;27;20226;-70
2023/09/18 01:07:39;;;;;;;9.15;8.23;;;19.10;99.90;;;;;;5013141;27;20923;-71
2023/09/18 01:10:34;;;;;;;9.60;8.60;;;19.10;99.90;;;;;;5037131;27;20221;-72
2023/09/18 01:13:29;;;;;;;12.15;8.38;;;19.10;99.90;;;;;;5009936;27;20221;-70
2023/09/18 01:16:25;;;;;;;9.85;8.85;;;19.00;99.90;;;;;;5000561;28;20825;-70
2023/09/18 01:19:15;;;;;;;10.52;8.90;;;19.00;99.90;;;;;;5002931;27;20214;-72
2023/09/18 01:22:04;;;;;;;11.18;9.35;;;19.00;99.90;;;;;;5011446;28;20240;-70
2023/09/18 01:24:54;;;;;;;10.23;9.23;;;18.90;99.90;;;;;;4998849;28;20365;-71
2023/09/18 01:27:43;;;;;;;11.02;9.25;;;18.90;99.90;;;;;;5020952;27;20229;-71
2023/09/18 01:30:34;;;;;;;10.85;8.57;;;19.00;99.90;;;;;;5080678;27;21007;-71
2023/09/18 01:33:25;;;;;;;10.48;9.40;;;18.90;99.90;;;;;;4997215;28;20324;-73
2023/09/18 01:36:15;;;;;;;10.88;9.77;;;18.90;99.90;;;;;;5012758;27;20248;-71
2023/09/18 01:39:05;;;;;;;10.23;8.85;;;18.90;99.90;;;;;;5007658;27;20294;-71
2023/09/18 01:41:55;;;;;;;10.25;9.15;;;19.00;99.90;;;;;;4999419;28;20229;-70
2023/09/18 01:44:45;;;;;;;10.65;9.48;;;18.90;99.90;;;;;;5016073;27;20226;-71
2023/09/18 01:47:35;;;;;;;13.70;9.52;;;18.90;99.90;;;;;;5043370;27;20774;-71
2023/09/18 01:50:25;;;;;;;11.23;9.15;;;18.90;99.90;;;;;;5019312;27;20233;-71
2023/09/18 01:53:14;;;;;;;11.13;9.73;;;18.90;99.90;;;;;;5024648;28;21131;-70
2023/09/18 01:56:03;;;;;;;10.32;9.38;;;18.90;99.90;;;;;;4986532;28;20367;-70
2023/09/18 01:58:53;;;;;;;9.85;8.85;;;18.90;99.90;;;;;;5000804;28;20234;-69
2023/09/18 02:01:43;;;;;;;10.93;9.50;;;18.90;99.90;;;;;;5080702;27;20835;-71
2023/09/18 02:04:32;;;;;;;14.18;9.95;;;18.90;99.90;;;;;;5074543;27;20262;-70
2023/09/18 02:07:41;;;;;;;10.57;9.48;;;18.90;99.90;;;;;;5023052;27;20237;-70
2023/09/18 02:10:30;;;;;;;11.07;9.30;;;18.90;99.90;;;;;;5059068;27;20717;-69
2023/09/18 02:13:18;;;;;;;11.32;10.23;;;18.90;99.90;;;;;;5080590;27;20302;-70
2023/09/18 02:16:09;;;;;;;12.32;9.63;;;18.90;99.90;;;;;;5009820;27;20274;-70
2023/09/18 02:18:58;;;;;;;11.45;10.13;;;18.80;99.90;;;;;;5022156;27;21137;-71
2023/09/18 02:21:47;;;;;;;11.50;10.30;;;18.80;99.90;;;;;;5077250;27;20264;-71
2023/09/18 02:24:35;;;;;;;11.30;10.15;;;18.90;99.90;;;;;;5022335;28;20230;-71
2023/09/18 02:27:24;;;;;;;11.60;10.40;;;18.90;99.90;;;;;;5019120;27;20222;-72
2023/09/18 02:30:14;;;;;;;12.00;10.05;;;18.90;99.90;;;;;;5027224;28;20235;-72
2023/09/18 02:33:04;;;;;;;12.00;10.35;;;18.80;99.90;;;;;;4998935;28;20215;-72
2023/09/18 02:35:57;;;;;;;13.35;9.45;;;18.80;99.90;;;;;;5043050;28;20724;-71
2023/09/18 02:38:46;;;;;;;11.70;10.50;;;18.80;99.90;;;;;;5108497;27;20214;-70
2023/09/18 02:41:34;;;;;;;11.35;10.23;;;18.70;99.90;;;;;;5020109;27;20229;-71
2023/09/18 02:44:23;;;;;;;11.43;10.23;;;18.70;99.90;;;;;;5023002;27;20917;-70
2023/09/18 02:47:12;;;;;;;10.90;9.80;;;18.70;99.90;;;;;;4999864;28;20260;-70
2023/09/18 02:50:04;;;;;;;12.25;9.98;;;18.70;99.90;;;;;;5070943;27;20240;-71
2023/09/18 02:52:53;;;;;;;11.85;10.55;;;18.70;99.90;;;;;;4988113;28;20222;-71
2023/09/18 02:55:41;;;;;;;11.80;10.63;;;18.60;99.90;;;;;;4988886;28;20240;-72
2023/09/18 02:58:30;;;;;;;13.18;10.68;;;18.50;99.90;;;;;;5019287;27;20515;-71
2023/09/18 03:01:19;;;;;;;11.73;10.52;;;18.60;99.90;;;;;;5020493;27;20283;-69
2023/09/18 03:04:08;;;;;;;15.82;11.25;;;18.40;99.90;;;;;;5023006;28;20254;-69
2023/09/18 03:06:59;;;;;;;12.93;11.23;;;18.50;99.90;;;;;;5002863;28;20281;-71
2023/09/18 03:09:47;;;;;;;12.30;11.10;;;18.40;99.90;;;;;;5001696;28;20308;-71
2023/09/18 03:12:37;;;;;;;14.20;11.63;;;18.40;99.90;;;;;;5069622;27;20270;-71
2023/09/18 03:15:26;;;;;;;12.25;10.95;;;18.50;99.90;;;;;;4996312;28;20214;-70
2023/09/18 03:18:15;;;;;;;14.45;11.93;;;18.60;99.90;;;;;;5027225;28;20230;-71
2023/09/18 03:21:04;;;;;;;13.63;11.43;;;18.60;99.90;;;;;;4992537;28;20313;-71
2023/09/18 03:23:54;;;;;;;12.85;11.55;;;18.70;99.90;;;;;;5075230;27;20599;-71
2023/09/18 03:26:43;;;;;;;14.32;12.32;;;18.60;99.90;;;;;;5082043;27;20234;-71
2023/09/18 03:29:32;;;;;;;12.98;11.68;;;18.50;99.90;;;;;;5016256;28;20237;-71
2023/09/18 03:32:23;;;;;;;14.02;12.32;;;18.40;99.90;;;;;;5000764;28;20299;-70
2023/09/18 03:35:17;;;;;;;13.65;12.20;;;18.50;99.90;;;;;;5083379;28;20298;-72
2023/09/18 03:38:08;;;;;;;13.10;11.68;;;18.40;99.90;;;;;;5001455;28;20229;-71
2023/09/18 03:41:01;;;;;;;13.77;11.93;;;18.50;99.90;;;;;;4994424;28;20226;-71
2023/09/18 03:43:51;;;;;;;13.15;11.52;;;18.50;99.90;;;;;;5058080;28;20291;-70
2023/09/18 03:46:40;;;;;;;15.23;12.18;;;18.40;99.90;;;;;;4990885;28;20272;-70
2023/09/18 03:49:29;;;;;;;13.85;12.13;;;18.40;99.90;;;;;;4996303;28;20229;-70
2023/09/18 03:52:18;;;;;;;15.23;12.13;;;18.40;99.90;;;;;;5003095;28;20538;-70
2023/09/18 03:55:08;;;;;;;13.43;12.02;;;18.40;99.90;;;;;;4994558;28;20295;-71
2023/09/18 03:57:58;;;;;;;13.52;12.00;;;18.40;99.90;;;;;;5082693;27;20261;-71
2023/09/18 04:00:47;;;;;;;14.10;12.10;;;18.40;99.90;;;;;;5119057;27;20732;-71
2023/09/18 04:03:36;;;;;;;12.98;11.68;;;18.40;99.90;;;;;;5114515;27;20225;-71
2023/09/18 04:06:25;;;;;;;13.20;11.60;;;18.30;99.90;;;;;;5024065;27;20733;-70
2023/09/18 04:09:15;;;;;;;13.65;12.35;;;18.40;99.90;;;;;;5074735;27;20234;-71
2023/09/18 04:12:05;;;;;;;15.38;12.48;;;18.40;99.90;;;;;;5001750;27;20227;-72
2023/09/18 04:14:59;;;;;;;13.65;11.95;;;18.30;99.90;;;;;;4987412;28;20219;-72
2023/09/18 04:17:49;;;;;;;14.90;12.73;;;18.40;99.90;;;;;;5011281;28;20589;-72
2023/09/18 04:20:38;;;;;;;13.70;12.25;;;18.50;99.90;;;;;;5080365;27;20695;-72
2023/09/18 04:23:28;;;;;;;14.40;12.43;;;18.50;99.90;;;;;;4996914;28;20317;-72
2023/09/18 04:26:20;;;;;;;14.38;12.05;;;18.40;99.90;;;;;;5000840;28;20225;-72
2023/09/18 04:29:12;;;;;;;13.75;11.88;;;18.30;99.90;;;;;;5087248;27;20229;-71
2023/09/18 04:32:04;;;;;;;14.70;12.95;;;18.30;99.90;;;;;;5080443;27;20241;-71
2023/09/18 04:34:53;;;;;;;16.35;12.45;;;18.30;99.90;;;;;;5008429;28;20780;-71
2023/09/18 04:37:41;;;;;;;13.85;12.35;;;18.30;99.90;;;;;;5083186;27;20743;-69
2023/09/18 04:40:32;;;;;;;15.88;13.02;;;18.30;99.90;;;;;;4997365;28;20230;-70
2023/09/18 04:43:24;;;;;;;14.40;12.93;;;18.40;99.90;;;;;;5077025;27;20225;-69
2023/09/18 04:46:13;;;;;;;14.95;12.40;;;18.30;99.90;;;;;;5003026;28;20876;-71
2023/09/18 04:49:04;;;;;;;15.85;12.70;;;18.20;99.90;;;;;;4992203;28;20226;-69
2023/09/18 04:51:53;;;;;;;15.00;13.40;;;18.30;99.90;;;;;;5007283;28;20588;-70
2023/09/18 04:54:43;;;;;;;14.82;12.60;;;18.30;99.90;;;;;;4996291;28;20596;-71
2023/09/18 04:57:32;;;;;;;15.15;13.30;;;18.30;99.90;;;;;;5086055;27;20262;-71
2023/09/18 05:00:26;;;;;;;14.48;13.05;;;18.20;99.90;;;;;;5000605;27;20251;-69
2023/09/18 05:03:16;;;;;;;15.60;12.65;;;18.10;99.90;;;;;;5079411;27;20214;-72
2023/09/18 05:06:06;;;;;;;14.50;13.00;;;18.30;99.90;;;;;;5077250;27;20226;-69
2023/09/18 05:08:55;;;;;;;15.23;12.93;;;18.30;99.90;;;;;;5012884;27;20280;-70
2023/09/18 05:11:44;;;;;;;14.18;12.77;;;18.40;99.90;;;;;;5011439;28;20237;-69
2023/09/18 05:14:33;;;;;;;13.95;12.50;;;18.40;99.90;;;;;;5091372;27;20255;-72
2023/09/18 05:17:41;;;;;;;13.65;12.25;;;18.40;99.90;;;;;;4998769;28;20714;-71
2023/09/18 05:20:30;;;;;;;14.23;12.80;;;18.50;99.90;;;;;;5006198;28;20206;-72
2023/09/18 05:23:21;;;;;;;17.52;13.45;;;18.60;99.90;;;;;;5022297;28;20233;-71
2023/09/18 05:26:10;;;;;;;15.27;13.48;;;18.50;99.90;;;;;;4999156;28;20256;-72
2023/09/18 05:28:59;;;;;;;14.52;13.02;;;18.50;99.90;;;;;;5007775;27;20252;-70
2023/09/18 05:31:48;;;;;;;15.23;13.52;;;18.60;99.90;;;;;;5015980;28;20236;-69
2023/09/18 05:34:37;;;;;;;15.20;13.60;;;18.50;99.90;;;;;;4996783;28;20217;-70
2023/09/18 05:37:26;;;;;;;14.80;13.00;;;18.60;99.90;;;;;;5017915;27;20306;-70
2023/09/18 05:40:17;;;;;;;17.95;14.55;;;18.60;99.90;;;;;;5004047;28;20225;-70
2023/09/18 05:43:08;;;;;;;15.75;13.55;;;18.60;99.90;;;;;;5001743;28;20222;-71
2023/09/18 05:45:57;;;;;;;19.25;15.00;;;18.60;99.90;;;;;;5017147;28;20261;-71
2023/09/18 05:48:46;;;;;;;15.25;13.65;;;18.50;99.90;;;;;;4977819;28;20680;-70
2023/09/18 05:51:35;;;;;;;15.80;13.70;;;18.60;99.90;;;;;;4999633;28;20290;-73
2023/09/18 05:54:24;;;;;;;17.60;14.70;;;18.70;99.90;;;;;;5005900;28;20843;-72
2023/09/18 05:57:14;;;;;;;16.55;14.50;;;18.80;99.90;;;;;;5013146;28;20231;-71
2023/09/18 06:00:04;;;;;;;21.10;14.50;;;18.70;99.90;;;;;;5015147;27;20222;-71
2023/09/18 06:03:00;;;;;;;18.50;14.52;;;18.80;99.90;;;;;;5036537;27;20245;-72
2023/09/18 06:05:49;;;;;;;17.27;14.73;;;18.80;99.90;;;;;;5017739;27;20232;-73
2023/09/18 06:08:38;;;;;;;16.15;14.00;;;18.80;99.90;;;;;;5016481;28;20225;-72
2023/09/18 06:11:27;;;;;;;18.95;15.73;;;18.80;99.90;;;;;;4995452;28;20222;-72
2023/09/18 06:14:17;;;;;;;16.48;14.70;;;18.80;99.90;;;;;;5077414;27;20219;-75
2023/09/18 06:17:07;;;;;;;19.42;15.05;;;19.00;99.90;;;;;;5045634;27;20226;-72
2023/09/18 06:19:55;;;;;;;16.42;14.48;;;19.10;99.90;;;;;;5033985;27;20222;-71
2023/09/18 06:22:45;;;;;;;16.60;14.80;;;19.10;99.90;;;;;;5100366;27;20226;-72
2023/09/18 06:25:34;;;;;;;20.23;15.23;;;19.20;99.90;;;;;;5102121;27;20241;-73
2023/09/18 06:28:22;;;;;;;17.13;15.32;;;19.40;99.90;;;;;;5114177;27;20273;-72
2023/09/18 06:31:13;;;;;;;15.65;14.02;;;19.40;99.90;;;;;;5029110;27;20232;-72
2023/09/18 06:34:01;;;;;;;15.50;13.90;;;19.50;99.90;;;;;;5021134;27;20225;-72
2023/09/18 06:36:50;;;;;;;16.92;15.15;;;19.50;99.90;;;;;;5078743;27;20221;-72
2023/09/18 06:39:39;;;;;;;17.30;14.27;;;19.70;99.90;;;;;;4996904;28;20277;-73
2023/09/18 06:42:29;;;;;;;16.77;14.55;;;19.70;99.90;;;;;;5015841;28;20323;-72
2023/09/18 06:45:18;;;;;;;17.55;14.68;;;19.70;99.90;;;;;;5072563;28;20611;-72
2023/09/18 06:48:09;;;;;;;18.17;14.75;;;19.80;99.90;;;;;;5002847;27;20213;-72
2023/09/18 06:50:58;;;;;;;17.02;14.98;;;19.90;99.90;;;;;;5087615;27;20286;-72
2023/09/18 06:53:47;;;;;;;17.38;14.85;;;20.00;99.90;;;;;;5013370;28;20229;-71
2023/09/18 06:56:35;;;;;;;21.90;16.13;;;20.10;99.90;;;;;;5001453;28;21005;-71
2023/09/18 06:59:24;;;;;;;16.85;13.90;;;20.10;99.90;;;;;;5007528;28;20373;-71
2023/09/18 07:02:15;;;;;;;16.70;14.00;;;20.20;99.90;;;;;;5012523;28;20234;-76
2023/09/18 07:05:05;;;;;;;19.63;14.32;;;20.30;99.90;;;;;;5004962;28;20241;-71
2023/09/18 07:07:55;;;;;;;17.55;15.40;;;20.30;99.90;;;;;;5011032;28;20237;-70
2023/09/18 07:10:44;;;;;;;17.50;15.80;;;20.30;99.90;;;;;;5013239;28;20898;-70
2023/09/18 07:13:33;;;;;;;19.02;15.38;;;20.40;99.90;;;;;;5000408;28;20325;-72
2023/09/18 07:16:22;;;;;;;20.00;14.95;;;20.50;99.90;;;;;;5007403;28;20342;-72
2023/09/18 07:19:16;;;;;;;16.13;14.48;;;20.60;99.90;;;;;;4994161;28;20253;-72
2023/09/18 07:22:07;;;;;;;18.60;14.52;;;20.70;99.90;;;;;;4997637;28;20528;-73
2023/09/18 07:24:56;;;;;;;15.68;13.88;;;20.80;99.90;;;;;;4990502;28;20243;-74
2023/09/18 07:27:49;;;;;;;16.65;14.35;;;21.00;99.90;;;;;;5011487;28;20697;-74
2023/09/18 07:30:38;;;;;;;16.38;14.05;;;21.20;99.90;;;;;;5017881;27;20830;-75
2023/09/18 07:33:27;;;;;;;15.75;14.13;;;21.30;99.90;;;;;;5008145;28;20731;-76
2023/09/18 07:36:16;;;;;;;14.80;13.40;;;21.50;99.90;;;;;;5049636;27;20222;-75
2023/09/18 07:39:07;;;;;;;15.90;14.25;;;21.60;99.90;;;;;;5006150;28;20226;-74
2023/09/18 07:41:56;;;;;;;17.00;14.48;;;22.00;99.90;;;;;;5045831;27;20237;-75
2023/09/18 07:44:48;;;;;;;15.65;13.95;;;22.40;99.90;;;;;;4996623;28;20736;-75
2023/09/18 07:47:37;;;;;;;14.27;12.57;;;22.60;99.90;;;;;;4997483;27;20252;-75
2023/09/18 07:50:26;;;;;;;16.58;13.10;;;22.90;99.90;;;;;;5080482;27;20225;-76
2023/09/18 07:53:15;;;;;;;17.27;13.38;;;23.20;99.90;;;;;;5002296;28;20298;-75
2023/09/18 07:56:06;;;;;;;15.07;13.57;;;23.40;99.90;;;;;;5000344;27;20276;-74
2023/09/18 07:58:56;;;;;;;16.35;12.93;;;23.60;99.90;;;;;;5013102;27;20225;-75
2023/09/18 08:01:45;;;;;;;14.13;12.70;;;23.70;99.90;;;;;;5005150;28;24950;-74
2023/09/18 08:04:33;;;;;;;14.30;12.80;;;23.80;99.90;;;;;;5091756;27;20217;-75
2023/09/18 08:07:22;;;;;;;16.48;12.10;;;24.20;99.90;;;;;;5013721;27;20675;-74
2023/09/18 08:10:12;;;;;;;17.63;12.70;;;24.50;99.90;;;;;;5012137;28;20237;-74
2023/09/18 08:13:03;;;;;;;13.70;11.52;;;24.90;99.90;;;;;;4990146;28;20226;-75
2023/09/18 08:15:52;;;;;;;13.10;11.55;;;24.90;99.90;;;;;;5007329;28;20238;-74
2023/09/18 08:18:41;;;;;;;13.15;11.60;;;24.90;99.90;;;;;;5011840;27;20755;-74
2023/09/18 08:21:30;;;;;;;14.50;12.30;;;25.30;99.90;;;;;;5010211;28;20323;-75
2023/09/18 08:24:20;;;;;;;14.65;11.95;;;25.60;99.90;;;;;;5006390;28;20630;-75
2023/09/18 08:27:09;;;;;;;12.60;11.30;;;25.90;99.90;;;;;;5002466;28;20643;-75
2023/09/18 08:30:00;;;;;;;15.35;12.38;;;26.10;99.90;;;;;;5016622;27;20223;-75
2023/09/18 08:32:48;;;;;;;13.27;11.52;;;26.50;99.90;;;;;;5084505;27;20246;-74
2023/09/18 08:35:39;;;;;;;12.95;11.63;;;26.90;99.90;;;;;;5010652;27;20233;-76
2023/09/18 08:38:28;;;;;;;15.98;11.35;;;27.30;99.90;;;;;;4997080;28;20225;-74
2023/09/18 08:41:20;;;;;;;15.82;11.55;;;27.60;99.90;;;;;;5003332;28;20657;-73
2023/09/18 08:44:10;;;;;;;13.50;12.10;;;27.60;99.90;;;;;;5015292;27;20362;-75
2023/09/18 08:47:00;;;;;;;16.48;11.05;;;27.90;99.90;;;;;;5015353;27;20229;-75
2023/09/18 08:49:52;;;;;;;15.75;11.77;;;28.10;99.90;;;;;;5026406;28;20298;-74
2023/09/18 08:52:45;;;;;;;13.95;11.35;;;28.20;99.90;;;;;;5034425;27;20214;-76
2023/09/18 08:55:35;;;;;;;16.13;11.38;;;28.40;99.90;;;;;;5076729;27;20731;-76
2023/09/18 08:58:24;;;;;;;13.52;10.75;;;28.60;99.90;;;;;;5012526;28;20232;-74
2023/09/18 09:01:13;;;;;;;12.75;11.25;;;28.70;99.90;;;;;;4993297;28;20236;-75
2023/09/18 09:04:04;;;;;;;12.02;10.90;;;28.90;99.90;;;;;;5011854;28;20222;-75
2023/09/18 09:06:53;;;;;;;14.02;10.52;;;28.80;99.90;;;;;;4998078;27;21057;-74
2023/09/18 09:09:42;;;;;;;15.52;10.82;;;28.00;99.90;;;;;;4996873;28;20295;-75
2023/09/18 09:12:54;;;;;;;12.10;10.90;;;27.10;99.90;;;;;;5011385;28;20609;-75
2023/09/18 09:15:47;;;;;;;12.50;11.23;;;26.40;99.90;;;;;;5001901;27;20225;-74
2023/09/18 09:18:47;;;;;;;14.68;11.25;;;26.20;99.90;;;;;;5011427;28;20233;-74
2023/09/18 09:21:43;;;;;;;11.70;10.50;;;25.90;99.90;;;;;;5064928;27;20226;-74
2023/09/18 09:24:40;;;;;;;11.88;10.38;;;25.70;99.90;;;;;;5014875;27;20239;-73
2023/09/18 09:27:29;;;;;;;11.40;9.70;;;25.60;99.90;;;;;;5014914;28;20217;-73
2023/09/18 09:30:23;;;;;;;11.93;8.98;;;25.50;99.90;;;;;;5085911;27;20223;-73
2023/09/18 09:33:13;;;;;;;10.27;9.18;;;25.20;99.90;;;;;;5047968;27;20233;-73
2023/09/18 09:36:06;;;;;;;10.52;9.40;;;25.20;99.90;;;;;;4997415;28;20281;-73
2023/09/18 09:38:59;;;;;;;11.38;9.90;;;25.20;99.90;;;;;;5004790;28;20230;-73
2023/09/18 09:41:49;;;;;;;11.50;10.40;;;25.20;99.90;;;;;;5026186;28;20221;-74
2023/09/18 09:44:39;;;;;;;12.98;9.70;;;25.20;99.90;;;;;;5007363;28;20321;-72
2023/09/18 09:47:30;;;;;;;10.60;9.50;;;25.20;99.90;;;;;;5013311;28;20218;-73
2023/09/18 09:50:19;;;;;;;13.05;9.20;;;25.10;99.90;;;;;;4994102;28;20222;-74
2023/09/18 09:53:08;;;;;;;10.27;9.38;;;25.20;99.90;;;;;;5079183;27;20632;-73
2023/09/18 09:55:59;;;;;;;10.30;9.40;;;25.10;99.90;;;;;;5094477;27;20234;-74
2023/09/18 09:59:03;;;;;;;9.20;8.00;;;25.00;99.90;;;;;;5010496;28;20313;-74
2023/09/18 10:01:53;;;;;;;9.35;8.50;;;25.00;99.90;;;;;;5078911;27;20253;-73
2023/09/18 10:04:48;;;;;;;10.15;7.25;;;25.00;99.90;;;;;;5113295;27;20225;-74
2023/09/18 10:07:38;;;;;;;7.90;6.50;;;25.10;99.90;;;;;;5109532;27;20223;-73
2023/09/18 10:10:32;;;;;;;6.97;6.28;;;25.20;99.90;;;;;;5119523;27;20305;-73
2023/09/18 10:13:30;;;;;;;5.88;5.28;;;25.20;99.90;;;;;;5088716;27;20314;-74
2023/09/18 10:16:21;;;;;;;10.18;6.10;;;25.20;99.90;;;;;;5087110;27;20215;-74
2023/09/18 10:19:21;;;;;;;6.75;6.05;;;25.30;99.90;;;;;;5111295;27;20226;-73
2023/09/18 10:22:20;;;;;;;7.10;6.00;;;25.30;99.90;;;;;;5107900;27;20241;-75
2023/09/18 10:25:17;;;;;;;9.07;6.65;;;25.30;99.90;;;;;;5113117;27;20230;-73
2023/09/18 10:28:08;;;;;;;6.80;5.60;;;25.40;99.90;;;;;;4998868;28;20838;-73
2023/09/18 10:30:59;;;;;;;10.23;6.25;;;25.30;99.90;;;;;;4992225;28;20721;-74
2023/09/18 10:33:50;;;;;;;6.28;5.68;;;25.40;99.90;;;;;;5085033;27;20237;-74
2023/09/18 10:36:41;;;;;;;7.13;5.78;;;25.40;99.90;;;;;;5020010;28;20225;-73
2023/09/18 10:39:32;;;;;;;6.90;6.20;;;25.40;99.90;;;;;;5058918;28;20700;-73
2023/09/18 10:42:23;;;;;;;6.68;6.05;;;25.30;99.90;;;;;;5124091;27;20222;-73
2023/09/18 10:45:15;;;;;;;7.95;6.15;;;25.30;99.90;;;;;;5114022;27;20214;-73
2023/09/18 10:48:09;;;;;;;6.53;5.93;;;25.40;99.90;;;;;;5018107;27;20226;-74
2023/09/18 10:51:04;;;;;;;9.45;5.95;;;25.40;99.90;;;;;;4997750;27;20223;-74
2023/09/18 10:53:54;;;;;;;7.68;6.30;;;25.40;99.90;;;;;;5059878;27;20256;-74
2023/09/18 10:56:43;;;;;;;7.55;6.55;;;25.50;99.90;;;;;;5022025;27;21086;-73
2023/09/18 10:59:33;;;;;;;6.25;5.65;;;25.50;99.90;;;;;;5021057;27;20221;-73
2023/09/18 11:02:24;;;;;;;8.95;5.75;;;25.50;99.90;;;;;;5023644;27;20321;-73
2023/09/18 11:05:15;;;;;;;6.75;6.00;;;25.50;99.90;;;;;;5048242;27;20691;-74
2023/09/18 11:08:26;;;;;;;6.43;5.72;;;25.50;99.90;;;;;;5038069;27;20232;-72
2023/09/18 11:11:20;;;;;;;7.32;6.47;;;25.70;99.90;;;;;;5003879;28;20226;-73
2023/09/18 11:14:13;;;;;;;6.15;5.60;;;25.70;99.90;;;;;;5004450;28;20597;-73
2023/09/18 11:17:06;;;;;;;8.02;6.30;;;25.70;99.90;;;;;;5013015;28;20228;-73
2023/09/18 11:20:08;;;;;;;6.53;5.55;;;25.80;99.90;;;;;;5005363;28;20271;-74
2023/09/18 11:23:10;;;;;;;6.85;6.07;;;26.00;99.90;;;;;;5003778;27;20562;-73
2023/09/18 11:25:59;;;;;;;7.38;5.78;;;26.00;99.90;;;;;;5020851;27;20233;-73
2023/09/18 11:28:50;;;;;;;7.05;6.45;;;26.00;99.90;;;;;;5010978;28;20238;-72
2023/09/18 11:31:47;;;;;;;7.07;6.38;;;26.00;99.90;;;;;;5012491;27;20237;-72
2023/09/18 11:34:38;;;;;;;8.40;6.10;;;26.20;99.90;;;;;;5086042;27;20281;-72
2023/09/18 11:37:28;;;;;;;6.75;6.07;;;26.10;99.90;;;;;;5002628;28;20222;-74
2023/09/18 11:40:34;;;;;;;6.72;6.03;;;26.10;99.90;;;;;;5022480;27;20757;-72
2023/09/18 11:43:26;;;;;;;9.60;6.53;;;26.20;99.90;;;;;;5011133;28;20305;-72
2023/09/18 11:46:20;;;;;;;7.75;6.50;;;26.30;99.90;;;;;;5106424;27;20228;-72
2023/09/18 11:49:12;;;;;;;9.00;6.90;;;26.20;99.90;;;;;;5034699;28;20238;-73
2023/09/18 11:52:02;;;;;;;8.70;6.75;;;26.30;99.90;;;;;;4994379;27;20222;-71
2023/09/18 11:54:51;;;;;;;10.70;8.05;;;26.30;99.90;;;;;;5006928;27;20728;-73
2023/09/18 11:57:43;;;;;;;8.70;7.03;;;26.40;99.90;;;;;;5006379;28;20716;-73
2023/09/18 12:00:33;;;;;;;7.43;6.72;;;26.30;99.90;;;;;;5054799;27;20839;-72
2023/09/18 12:03:26;;;;;;;7.78;6.97;;;26.40;99.90;;;;;;5111302;27;20796;-72
2023/09/18 12:06:17;;;;;;;7.30;6.57;;;26.40;99.90;;;;;;5109791;27;20253;-71
2023/09/18 12:09:07;;;;;;;7.47;6.65;;;26.40;99.90;;;;;;5033451;27;20502;-72
2023/09/18 12:11:57;;;;;;;8.23;7.07;;;26.50;99.90;;;;;;5110114;27;20222;-73
2023/09/18 12:14:48;;;;;;;8.93;7.32;;;26.40;99.90;;;;;;5107358;27;20228;-72
2023/09/18 12:17:37;;;;;;;10.88;6.95;;;26.40;99.90;;;;;;5117789;27;20226;-72
2023/09/18 12:20:26;;;;;;;7.07;6.47;;;26.30;99.90;;;;;;5114012;27;20218;-74
2023/09/18 12:23:15;;;;;;;8.45;7.65;;;26.40;99.90;;;;;;5057686;27;20716;-71
2023/09/18 12:26:06;;;;;;;7.38;6.78;;;26.40;99.90;;;;;;5010877;27;20231;-72
2023/09/18 12:28:56;;;;;;;8.18;7.15;;;26.50;99.90;;;;;;5066372;27;20242;-73
2023/09/18 12:31:50;;;;;;;8.40;7.38;;;26.60;99.90;;;;;;5032476;28;20793;-73
2023/09/18 12:34:42;;;;;;;8.98;7.30;;;26.70;99.90;;;;;;4997182;28;20237;-73
2023/09/18 12:37:30;;;;;;;7.90;7.20;;;26.60;99.90;;;;;;5009988;27;20238;-73
2023/09/18 12:40:27;;;;;;;8.27;7.47;;;26.60;99.90;;;;;;4998041;28;20219;-73
2023/09/18 12:43:16;;;;;;;7.95;7.15;;;26.50;99.90;;;;;;5006317;27;20700;-71
2023/09/18 12:46:07;;;;;;;8.55;7.47;;;26.50;99.90;;;;;;5077222;27;20378;-73
2023/09/18 12:48:57;;;;;;;8.40;7.30;;;26.30;99.90;;;;;;5072695;27;20320;-73
2023/09/18 12:51:56;;;;;;;10.07;8.20;;;26.30;99.90;;;;;;5009917;27;20237;-72
2023/09/18 12:54:53;;;;;;;8.70;7.78;;;26.30;99.90;;;;;;5035192;27;20238;-72
2023/09/18 12:57:43;;;;;;;10.00;7.18;;;26.30;99.90;;;;;;5005643;28;20214;-72
2023/09/18 13:00:35;;;;;;;8.52;7.60;;;26.30;99.90;;;;;;4992865;27;20830;-72
2023/09/18 13:03:24;;;;;;;9.25;7.65;;;26.20;99.90;;;;;;5080996;27;20306;-71
2023/09/18 13:06:18;;;;;;;9.77;7.43;;;26.20;99.90;;;;;;5004781;27;20251;-71
2023/09/18 13:09:18;;;;;;;9.40;8.18;;;26.10;99.90;;;;;;4996701;28;20218;-71
2023/09/18 13:12:08;;;;;;;8.70;7.80;;;26.10;99.90;;;;;;5012633;27;20225;-72
2023/09/18 13:15:04;;;;;;;9.98;7.43;;;26.00;99.90;;;;;;5010368;28;20225;-71
2023/09/18 13:17:53;;;;;;;7.90;7.20;;;26.10;99.90;;;;;;5002755;28;20671;-72
2023/09/18 13:20:42;;;;;;;8.80;7.90;;;26.10;99.90;;;;;;5012058;28;20418;-70
2023/09/18 13:23:34;;;;;;;8.52;7.78;;;26.10;99.90;;;;;;5000956;27;20330;-70
2023/09/18 13:26:23;;;;;;;10.60;7.60;;;26.10;99.90;;;;;;5015535;28;20217;-71
2023/09/18 13:29:12;;;;;;;9.40;7.40;;;26.10;99.90;;;;;;4991989;28;20914;-71
2023/09/18 13:32:04;;;;;;;8.75;7.88;;;26.20;99.90;;;;;;4998193;27;20666;-73
2023/09/18 13:34:52;;;;;;;8.65;7.85;;;26.20;99.90;;;;;;5020122;27;20230;-72
2023/09/18 13:37:43;;;;;;;8.35;7.45;;;26.20;99.90;;;;;;4997980;28;20225;-72
2023/09/18 13:40:37;;;;;;;9.88;7.32;;;26.20;99.90;;;;;;5010252;27;20328;-74
2023/09/18 13:43:27;;;;;;;9.85;7.63;;;26.20;99.90;;;;;;4996525;28;20229;-73
2023/09/18 13:46:16;;;;;;;13.25;8.07;;;26.30;99.90;;;;;;5082104;27;20287;-72
2023/09/18 13:49:06;;;;;;;9.95;7.20;;;26.20;99.90;;;;;;4996942;28;20664;-73
2023/09/18 13:51:56;;;;;;;8.57;7.70;;;26.10;99.90;;;;;;4999003;28;20379;-71
2023/09/18 13:54:51;;;;;;;8.65;7.13;;;26.10;99.90;;;;;;4998702;28;20236;-70
2023/09/18 13:57:41;;;;;;;9.40;7.25;;;26.20;99.90;;;;;;5024935;28;20688;-70
2023/09/18 14:00:31;;;;;;;11.05;8.00;;;26.20;99.90;;;;;;5003835;28;20226;-69
2023/09/18 14:03:23;;;;;;;8.65;7.78;;;26.10;99.90;;;;;;5011893;28;20218;-73
2023/09/18 14:06:12;;;;;;;9.07;7.28;;;26.00;99.90;;;;;;5002806;28;20320;-71
2023/09/18 14:09:03;;;;;;;8.60;7.68;;;26.00;99.90;;;;;;4997477;28;20367;-71
2023/09/18 14:11:54;;;;;;;9.63;7.05;;;26.00;99.90;;;;;;5008576;28;20234;-71
2023/09/18 14:14:45;;;;;;;11.00;7.15;;;26.00;99.90;;;;;;5008529;28;20229;-72
2023/09/18 14:17:35;;;;;;;8.07;7.05;;;25.90;99.90;;;;;;5018622;27;20593;-71
2023/09/18 14:20:24;;;;;;;8.70;7.03;;;25.80;99.90;;;;;;5008446;28;20229;-71
2023/09/18 14:23:13;;;;;;;7.22;6.53;;;25.80;99.90;;;;;;5006046;28;20221;-70
2023/09/18 14:26:02;;;;;;;10.88;7.35;;;25.80;99.90;;;;;;5079847;27;20316;-74
2023/09/18 14:28:51;;;;;;;10.02;6.85;;;25.70;99.90;;;;;;5007988;28;20305;-72
2023/09/18 14:31:43;;;;;;;8.60;6.80;;;25.70;99.90;;;;;;5004428;28;20231;-73
2023/09/18 14:34:35;;;;;;;7.93;6.72;;;25.70;99.90;;;;;;5009170;27;20302;-72
2023/09/18 14:37:24;;;;;;;8.43;6.88;;;25.60;99.90;;;;;;5004479;28;20241;-72